Time;durP1;ratioP1;P1;durP2;ratioP2;P2;SDS_P1;SDS_P2;PMS_P1;PMS_P2;Temp;Humidity;BMP_temperature;BMP_pressure;BME280_temperature;BME280_humidity;BME280_pressure;Samples;Min_cycle;Max_cycle;Signal;HPM_P1;HPM_P2
2021/04/10 00:01:23;;;;;;;17.87;5.83;;;6.60;99.20;;;;;;4389750;32;20172;-62
2021/04/10 00:03:51;;;;;;;14.77;5.03;;;6.60;99.20;;;;;;4384921;32;20167;-62
2021/04/10 00:06:17;;;;;;;14.57;5.57;;;6.60;99.10;;;;;;4379733;32;20236;-64
2021/04/10 00:08:43;;;;;;;10.93;5.33;;;6.60;99.10;;;;;;4378009;32;20522;-62
2021/04/10 00:11:09;;;;;;;11.73;5.50;;;6.60;99.00;;;;;;4383352;32;20232;-64
2021/04/10 00:13:36;;;;;;;14.33;6.10;;;6.60;99.00;;;;;;4382715;32;20270;-64
2021/04/10 00:16:03;;;;;;;14.20;5.43;;;6.60;99.00;;;;;;4389040;32;20216;-64
2021/04/10 00:18:29;;;;;;;14.80;5.80;;;6.60;98.90;;;;;;4381252;32;20223;-63
2021/04/10 00:20:57;;;;;;;14.30;5.07;;;6.60;98.80;;;;;;4381052;32;20203;-61
2021/04/10 00:23:23;;;;;;;16.07;5.37;;;6.60;98.80;;;;;;4385470;32;20159;-62
2021/04/10 00:25:49;;;;;;;12.17;4.87;;;6.60;98.80;;;;;;4384160;32;20183;-62
2021/04/10 00:28:15;;;;;;;12.03;4.63;;;6.50;98.90;;;;;;4381035;32;20505;-61
2021/04/10 00:30:42;;;;;;;17.17;5.90;;;6.60;98.90;;;;;;4379041;32;20232;-60
2021/04/10 00:33:08;;;;;;;13.27;5.10;;;6.50;98.80;;;;;;4377261;32;20239;-63
2021/04/10 00:35:36;;;;;;;11.33;4.30;;;6.50;98.70;;;;;;4377326;32;20228;-60
2021/04/10 00:38:04;;;;;;;8.73;4.53;;;6.50;98.70;;;;;;4377744;32;20253;-65
2021/04/10 00:40:30;;;;;;;14.33;5.10;;;6.50;98.80;;;;;;4377871;32;20239;-64
2021/04/10 00:42:56;;;;;;;12.93;5.00;;;6.50;98.70;;;;;;4376596;32;20224;-64
2021/04/10 00:45:23;;;;;;;9.70;4.50;;;6.50;98.70;;;;;;4377142;32;20220;-63
2021/04/10 00:47:49;;;;;;;16.10;4.30;;;6.50;98.70;;;;;;4385606;32;20178;-62
2021/04/10 00:50:16;;;;;;;12.93;4.70;;;6.40;98.60;;;;;;4376846;32;20303;-62
2021/04/10 00:52:42;;;;;;;12.50;5.13;;;6.40;98.60;;;;;;4385291;32;20235;-63
2021/04/10 00:55:11;;;;;;;16.30;4.83;;;6.40;98.70;;;;;;4376509;32;20217;-61
2021/04/10 00:57:37;;;;;;;12.03;4.10;;;6.40;98.70;;;;;;4383628;32;20454;-61
2021/04/10 01:00:05;;;;;;;10.93;5.00;;;6.40;98.80;;;;;;4376418;32;20220;-60
2021/04/10 01:02:32;;;;;;;10.87;4.83;;;6.40;98.70;;;;;;4377968;32;20516;-62
2021/04/10 01:04:58;;;;;;;12.87;4.73;;;6.30;98.80;;;;;;4376461;32;20554;-64
2021/04/10 01:07:24;;;;;;;13.77;4.20;;;6.30;98.70;;;;;;4379928;32;20160;-63
2021/04/10 01:09:52;;;;;;;16.27;4.50;;;6.30;98.80;;;;;;4380812;32;20164;-63
2021/04/10 01:12:33;;;;;;;13.30;4.40;;;6.30;98.90;;;;;;4376917;32;20148;-65
2021/04/10 01:15:09;;;;;;;7.97;3.60;;;6.30;98.80;;;;;;4375775;32;20219;-61
2021/04/10 01:17:45;;;;;;;13.87;4.27;;;6.20;98.90;;;;;;4380066;32;20259;-60
2021/04/10 01:20:42;;;;;;;17.10;4.53;;;6.20;98.90;;;;;;4376499;32;20144;-61
2021/04/10 01:23:37;;;;;;;13.70;4.73;;;6.20;99.00;;;;;;4300803;33;20629;-62
2021/04/10 01:26:11;;;;;;;11.33;4.37;;;6.10;99.00;;;;;;4303870;33;20169;-62
2021/04/10 01:28:51;;;;;;;12.60;4.40;;;6.00;99.10;;;;;;4309976;33;20182;-63
2021/04/10 01:31:21;;;;;;;14.10;4.63;;;6.00;99.30;;;;;;4300647;33;20574;-62
2021/04/10 01:33:51;;;;;;;12.13;4.47;;;6.00;99.30;;;;;;4301233;33;20183;-62
2021/04/10 01:36:22;;;;;;;15.80;4.00;;;6.00;99.30;;;;;;4301152;33;20161;-63
2021/04/10 01:38:51;;;;;;;10.90;4.00;;;6.00;99.10;;;;;;4309178;33;20285;-61
2021/04/10 01:41:19;;;;;;;10.93;4.07;;;6.00;99.10;;;;;;4300425;33;20229;-62
2021/04/10 01:43:47;;;;;;;13.47;4.40;;;6.00;99.20;;;;;;4313025;33;20161;-63
2021/04/10 01:46:14;;;;;;;8.83;4.07;;;6.10;99.10;;;;;;4311271;33;20184;-63
2021/04/10 01:48:43;;;;;;;10.90;4.30;;;6.10;99.00;;;;;;4313303;33;20150;-62
2021/04/10 01:51:10;;;;;;;14.57;5.07;;;6.00;99.10;;;;;;4305181;33;20248;-64
2021/04/10 01:53:37;;;;;;;11.37;3.63;;;6.10;99.00;;;;;;4316277;33;20256;-62
2021/04/10 01:56:05;;;;;;;9.77;3.80;;;6.10;98.90;;;;;;4301432;33;20153;-63
2021/04/10 01:58:33;;;;;;;11.30;4.20;;;6.10;98.80;;;;;;4308089;33;20237;-61
2021/04/10 02:01:01;;;;;;;12.50;4.27;;;6.10;98.80;;;;;;4382387;32;20219;-61
2021/04/10 02:03:28;;;;;;;11.37;3.73;;;6.10;98.90;;;;;;4375764;32;20215;-62
2021/04/10 02:05:56;;;;;;;9.20;4.03;;;6.10;98.90;;;;;;4375261;32;20615;-62
2021/04/10 02:08:25;;;;;;;14.00;4.57;;;6.10;98.80;;;;;;4377955;32;20227;-61
2021/04/10 02:10:52;;;;;;;14.47;5.00;;;6.10;98.80;;;;;;4375469;32;20509;-61
2021/04/10 02:13:20;;;;;;;7.40;4.07;;;6.20;98.70;;;;;;4375395;32;20232;-61
2021/04/10 02:15:50;;;;;;;14.63;4.57;;;6.20;98.70;;;;;;4376900;32;20219;-60
2021/04/10 02:18:18;;;;;;;15.83;4.33;;;6.30;98.70;;;;;;4378206;32;20278;-61
2021/04/10 02:20:45;;;;;;;8.67;4.43;;;6.30;98.60;;;;;;4377421;32;20167;-62
2021/04/10 02:23:13;;;;;;;14.33;4.87;;;6.30;98.60;;;;;;4375253;32;20155;-61
2021/04/10 02:25:39;;;;;;;12.43;4.53;;;6.30;98.70;;;;;;4375283;32;20152;-63
2021/04/10 02:28:06;;;;;;;12.57;4.77;;;6.20;99.00;;;;;;4377065;32;20295;-63
2021/04/10 02:30:32;;;;;;;14.37;4.67;;;6.30;98.80;;;;;;4388766;32;20220;-62
2021/04/10 02:33:02;;;;;;;12.83;5.00;;;6.30;98.90;;;;;;4381615;32;20220;-64
2021/04/10 02:35:35;;;;;;;13.33;4.87;;;6.30;98.90;;;;;;4376330;32;20224;-64
2021/04/10 02:38:02;;;;;;;11.90;5.07;;;6.30;99.00;;;;;;4375501;32;20243;-62
2021/04/10 02:40:30;;;;;;;16.33;5.17;;;6.30;98.90;;;;;;4378189;32;20223;-61
2021/04/10 02:42:58;;;;;;;10.73;4.50;;;6.30;98.90;;;;;;4375308;32;20568;-61
2021/04/10 02:45:26;;;;;;;15.23;5.10;;;6.30;98.90;;;;;;4374654;32;20191;-61
2021/04/10 02:47:55;;;;;;;14.10;5.80;;;6.30;98.90;;;;;;4375438;32;20144;-61
2021/04/10 02:50:22;;;;;;;11.90;5.40;;;6.30;99.00;;;;;;4378061;32;20179;-62
2021/04/10 02:52:52;;;;;;;17.40;5.33;;;6.30;98.90;;;;;;4377091;32;20566;-60
2021/04/10 02:55:24;;;;;;;9.17;4.97;;;6.30;99.00;;;;;;4374945;32;20223;-62
2021/04/10 02:57:53;;;;;;;16.07;5.50;;;6.30;99.00;;;;;;4375057;32;20183;-62
2021/04/10 03:00:20;;;;;;;9.10;5.07;;;6.30;98.90;;;;;;4378717;32;20223;-60
2021/04/10 03:02:48;;;;;;;13.20;6.20;;;6.30;99.00;;;;;;4375198;32;20255;-64
2021/04/10 03:05:14;;;;;;;12.13;6.10;;;6.30;98.80;;;;;;4376214;32;20220;-63
2021/04/10 03:07:46;;;;;;;14.00;5.63;;;6.30;98.90;;;;;;4374983;32;20699;-62
2021/04/10 03:10:15;;;;;;;15.93;5.60;;;6.20;98.90;;;;;;4380860;32;20240;-64
2021/04/10 03:12:42;;;;;;;13.83;5.37;;;6.30;99.00;;;;;;4374754;32;20250;-60
2021/04/10 03:15:12;;;;;;;15.77;5.77;;;6.30;99.10;;;;;;4376152;32;20212;-61
2021/04/10 03:17:40;;;;;;;11.80;5.77;;;6.30;99.00;;;;;;4388952;32;20152;-64
2021/04/10 03:20:12;;;;;;;12.27;5.93;;;6.30;98.90;;;;;;4388338;32;20153;-65
2021/04/10 03:22:41;;;;;;;13.20;5.63;;;6.30;99.10;;;;;;4381765;32;20213;-61
2021/04/10 03:25:09;;;;;;;13.23;5.67;;;6.30;98.90;;;;;;4384058;32;20576;-64
2021/04/10 03:27:36;;;;;;;12.47;5.67;;;6.30;99.00;;;;;;4375584;32;20236;-62
2021/04/10 03:30:04;;;;;;;13.20;6.43;;;6.30;98.80;;;;;;4386785;32;20650;-62
2021/04/10 03:32:32;;;;;;;18.77;6.00;;;6.40;98.90;;;;;;4375156;32;20278;-62
2021/04/10 03:34:59;;;;;;;11.10;5.47;;;6.30;98.90;;;;;;4375084;32;20137;-62
2021/04/10 03:37:28;;;;;;;11.33;5.43;;;6.30;98.90;;;;;;4377664;32;20513;-60
2021/04/10 03:39:54;;;;;;;19.63;5.83;;;6.30;99.00;;;;;;4378000;32;20179;-62
2021/04/10 03:42:31;;;;;;;10.83;5.93;;;6.30;99.10;;;;;;4379048;32;20301;-62
2021/04/10 03:44:58;;;;;;;12.73;5.97;;;6.30;99.20;;;;;;4377418;32;20676;-61
2021/04/10 03:47:24;;;;;;;10.33;5.43;;;6.20;99.20;;;;;;4377834;32;20228;-61
2021/04/10 03:49:50;;;;;;;12.07;5.67;;;6.30;99.10;;;;;;4377091;32;20220;-60
2021/04/10 03:52:17;;;;;;;17.73;6.17;;;6.30;99.00;;;;;;4390156;32;20197;-61
2021/04/10 03:54:43;;;;;;;16.47;5.90;;;6.30;99.10;;;;;;4385180;32;20293;-61
2021/04/10 03:57:09;;;;;;;15.63;6.07;;;6.30;98.90;;;;;;4377338;32;20164;-62
2021/04/10 03:59:36;;;;;;;9.23;4.90;;;6.30;99.00;;;;;;4377358;32;20219;-62
2021/04/10 04:02:03;;;;;;;14.50;5.33;;;6.30;99.00;;;;;;4388216;32;20223;-60
2021/04/10 04:04:29;;;;;;;17.07;6.10;;;6.30;99.10;;;;;;4381458;32;20283;-63
2021/04/10 04:06:55;;;;;;;13.00;5.47;;;6.30;99.00;;;;;;4377407;32;20593;-60
2021/04/10 04:09:23;;;;;;;16.40;6.10;;;6.30;99.00;;;;;;4377557;32;20305;-62
2021/04/10 04:11:50;;;;;;;15.23;5.93;;;6.30;99.10;;;;;;4384456;32;20646;-61
2021/04/10 04:14:16;;;;;;;12.13;5.53;;;6.30;99.10;;;;;;4384885;32;20223;-61
2021/04/10 04:16:42;;;;;;;11.63;5.63;;;6.30;99.00;;;;;;4377164;32;20227;-60
2021/04/10 04:19:09;;;;;;;14.13;5.73;;;6.20;99.00;;;;;;4377414;32;20573;-61
2021/04/10 04:21:36;;;;;;;11.37;5.97;;;6.20;99.00;;;;;;4387557;32;20592;-65
2021/04/10 04:24:02;;;;;;;12.77;4.73;;;6.20;99.00;;;;;;4384895;32;20717;-62
2021/04/10 04:26:28;;;;;;;11.07;5.43;;;6.20;99.00;;;;;;4376371;32;20179;-64
2021/04/10 04:28:55;;;;;;;13.07;5.83;;;6.20;99.00;;;;;;4377509;32;20274;-61
2021/04/10 04:31:21;;;;;;;15.17;5.23;;;6.10;99.10;;;;;;4378879;32;20235;-62
2021/04/10 04:33:47;;;;;;;11.67;5.83;;;6.10;99.20;;;;;;4384698;32;20211;-61
2021/04/10 04:36:14;;;;;;;9.37;5.13;;;6.10;99.30;;;;;;4389931;32;20336;-61
2021/04/10 04:38:41;;;;;;;15.67;6.27;;;6.10;99.30;;;;;;4376836;32;20190;-64
2021/04/10 04:41:07;;;;;;;15.50;5.63;;;6.20;99.30;;;;;;4378359;32;20632;-61
2021/04/10 04:43:34;;;;;;;13.97;5.30;;;6.20;99.30;;;;;;4389459;32;20191;-63
2021/04/10 04:46:00;;;;;;;13.97;5.20;;;6.10;99.30;;;;;;4378852;32;20223;-64
2021/04/10 04:48:26;;;;;;;11.97;4.83;;;6.10;99.30;;;;;;4376065;32;20186;-63
2021/04/10 04:50:53;;;;;;;11.80;5.70;;;6.10;99.40;;;;;;4376163;32;20148;-60
2021/04/10 04:53:21;;;;;;;15.93;5.30;;;6.10;99.40;;;;;;4378797;32;20136;-63
2021/04/10 04:55:47;;;;;;;18.80;5.90;;;6.10;99.30;;;;;;4394515;32;20172;-63
2021/04/10 04:58:14;;;;;;;8.87;5.60;;;6.10;99.40;;;;;;4385137;32;20569;-61
2021/04/10 05:00:40;;;;;;;12.80;5.80;;;6.10;99.40;;;;;;4376745;32;20140;-63
2021/04/10 05:03:07;;;;;;;11.33;5.73;;;6.00;99.50;;;;;;4380957;32;20523;-64
2021/04/10 05:05:33;;;;;;;9.23;5.00;;;6.10;99.50;;;;;;4383820;32;20588;-61
2021/04/10 05:07:59;;;;;;;11.80;4.70;;;6.10;99.50;;;;;;4376422;32;20235;-64
2021/04/10 05:10:26;;;;;;;15.73;5.60;;;6.00;99.60;;;;;;4384272;32;20183;-64
2021/04/10 05:12:53;;;;;;;13.40;5.80;;;6.10;99.60;;;;;;4392951;32;20270;-62
2021/04/10 05:15:19;;;;;;;11.23;4.83;;;6.10;99.40;;;;;;4377924;32;20480;-63
2021/04/10 05:17:45;;;;;;;15.27;5.57;;;6.10;99.60;;;;;;4376723;32;20137;-62
2021/04/10 05:20:12;;;;;;;15.00;5.17;;;6.10;99.30;;;;;;4375755;32;20247;-64
2021/04/10 05:22:39;;;;;;;11.90;4.47;;;6.20;99.10;;;;;;4378811;32;20211;-62
2021/04/10 05:25:06;;;;;;;14.10;4.13;;;6.20;98.80;;;;;;4378900;32;20144;-62
2021/04/10 05:27:34;;;;;;;11.80;4.00;;;6.20;98.50;;;;;;4376578;32;20530;-60
2021/04/10 05:30:00;;;;;;;13.33;3.93;;;6.20;98.20;;;;;;4376234;32;20234;-62
2021/04/10 05:32:27;;;;;;;8.17;3.63;;;6.20;98.10;;;;;;4376200;32;20271;-63
2021/04/10 05:34:53;;;;;;;11.87;3.50;;;6.20;97.70;;;;;;4385846;32;20159;-61
2021/04/10 05:37:20;;;;;;;12.17;3.80;;;6.20;97.70;;;;;;4378631;32;20254;-62
2021/04/10 05:39:46;;;;;;;11.63;3.43;;;6.20;97.90;;;;;;4375907;32;20167;-62
2021/04/10 05:42:13;;;;;;;9.07;3.37;;;6.20;97.40;;;;;;4379203;32;20579;-61
2021/04/10 05:44:41;;;;;;;9.43;3.07;;;6.20;97.40;;;;;;4391231;32;20219;-61
2021/04/10 05:47:07;;;;;;;11.97;4.63;;;6.20;97.70;;;;;;4376161;32;20223;-62
2021/04/10 05:49:34;;;;;;;12.43;4.27;;;6.30;97.40;;;;;;4380061;32;20226;-62
2021/04/10 05:52:00;;;;;;;10.03;3.70;;;6.30;97.10;;;;;;4384016;32;20687;-62
2021/04/10 05:54:26;;;;;;;8.80;2.90;;;6.40;97.20;;;;;;4382055;32;20554;-61
2021/04/10 05:56:52;;;;;;;12.23;3.77;;;6.50;96.80;;;;;;4382768;32;20168;-61
2021/04/10 05:59:19;;;;;;;12.77;3.20;;;6.60;96.50;;;;;;4381351;32;20234;-62
2021/04/10 06:01:46;;;;;;;10.73;2.87;;;6.60;96.40;;;;;;4379783;32;20534;-60
2021/04/10 06:04:12;;;;;;;7.70;3.73;;;6.60;96.20;;;;;;4383426;32;20144;-60
2021/04/10 06:06:38;;;;;;;9.20;3.90;;;6.60;96.20;;;;;;4382420;32;20186;-61
2021/04/10 06:09:05;;;;;;;9.03;3.20;;;6.60;96.40;;;;;;4381615;32;20239;-61
2021/04/10 06:11:32;;;;;;;11.47;3.27;;;6.60;96.20;;;;;;4381058;32;20149;-61
2021/04/10 06:13:58;;;;;;;12.57;3.20;;;6.80;95.90;;;;;;4379227;32;20219;-60
2021/04/10 06:16:24;;;;;;;7.23;3.17;;;6.90;95.60;;;;;;4384443;32;20212;-61
2021/04/10 06:18:51;;;;;;;16.83;3.43;;;7.10;95.40;;;;;;4384535;32;20554;-61
2021/04/10 06:21:18;;;;;;;7.87;3.50;;;7.30;95.00;;;;;;4377165;32;20261;-61
2021/04/10 06:23:47;;;;;;;9.70;3.10;;;7.50;94.60;;;;;;4381205;32;20156;-61
2021/04/10 06:26:14;;;;;;;9.73;2.80;;;7.50;94.30;;;;;;4376431;32;20156;-62
2021/04/10 06:28:41;;;;;;;9.70;3.30;;;7.50;94.20;;;;;;4381280;32;20171;-62
2021/04/10 06:31:07;;;;;;;12.77;3.77;;;7.40;94.50;;;;;;4381054;32;20237;-61
2021/04/10 06:33:33;;;;;;;8.73;3.10;;;7.50;94.30;;;;;;4384945;32;20148;-62
2021/04/10 06:36:00;;;;;;;9.83;3.30;;;7.60;94.30;;;;;;4384830;32;20160;-62
2021/04/10 06:38:26;;;;;;;12.50;3.43;;;7.70;94.00;;;;;;4381526;32;20271;-62
2021/04/10 06:40:54;;;;;;;10.70;3.33;;;7.80;93.50;;;;;;4381357;32;20211;-61
2021/04/10 06:43:21;;;;;;;12.87;3.53;;;7.80;93.40;;;;;;4383116;32;20182;-61
2021/04/10 06:45:48;;;;;;;9.83;3.27;;;8.00;93.30;;;;;;4381216;32;20235;-61
2021/04/10 06:48:14;;;;;;;11.77;3.40;;;8.10;93.10;;;;;;4383560;32;20236;-60
2021/04/10 06:50:42;;;;;;;12.70;3.90;;;7.90;92.90;;;;;;4378573;32;20259;-61
2021/04/10 06:53:15;;;;;;;11.90;4.13;;;7.80;93.20;;;;;;4383255;32;20573;-61
2021/04/10 06:55:49;;;;;;;12.70;3.97;;;7.90;93.20;;;;;;4380912;32;20149;-61
2021/04/10 06:58:23;;;;;;;17.43;4.27;;;8.20;93.10;;;;;;4379815;32;20227;-62
2021/04/10 07:00:54;;;;;;;10.77;3.53;;;8.40;92.40;;;;;;4381564;32;20140;-63
2021/04/10 07:03:21;;;;;;;13.00;3.67;;;8.40;92.00;;;;;;4384444;32;20148;-63
2021/04/10 07:05:48;;;;;;;11.60;3.77;;;8.50;91.70;;;;;;4382740;32;20147;-62
2021/04/10 07:08:16;;;;;;;13.67;3.83;;;8.40;91.60;;;;;;4386159;32;20638;-64
2021/04/10 07:10:42;;;;;;;9.20;3.13;;;8.40;92.00;;;;;;4273459;32;3763095;-62
2021/04/10 07:13:09;;;;;;;11.00;3.23;;;8.50;91.70;;;;;;4388241;32;20676;-62
2021/04/10 07:15:35;;;;;;;17.07;3.30;;;8.80;91.40;;;;;;4382345;32;20176;-62
2021/04/10 07:18:04;;;;;;;9.23;2.80;;;8.90;90.90;;;;;;4384048;32;20290;-63
2021/04/10 07:20:32;;;;;;;15.17;3.00;;;9.10;90.70;;;;;;4381558;32;20640;-62
2021/04/10 07:23:03;;;;;;;7.23;2.63;;;9.40;89.70;;;;;;4384936;32;20155;-64
2021/04/10 07:25:32;;;;;;;6.93;2.70;;;9.30;89.20;;;;;;4385939;32;20222;-62
2021/04/10 07:28:29;;;;;;;8.17;3.00;;;9.30;90.10;;;;;;4387228;32;20897;-60
2021/04/10 07:30:59;;;;;;;8.83;2.90;;;9.50;89.70;;;;;;4384405;32;20243;-61
2021/04/10 07:33:26;;;;;;;9.67;3.40;;;9.40;90.00;;;;;;4383557;32;20644;-63
2021/04/10 07:35:52;;;;;;;5.67;2.90;;;9.60;89.60;;;;;;4383253;32;20179;-63
2021/04/10 07:38:29;;;;;;;10.17;3.20;;;9.70;87.00;;;;;;4385508;32;20212;-62
2021/04/10 07:40:58;;;;;;;10.60;3.53;;;9.70;87.40;;;;;;4385675;32;20271;-61
2021/04/10 07:43:28;;;;;;;10.77;2.80;;;9.90;86.70;;;;;;4385553;32;20568;-62
2021/04/10 07:46:17;;;;;;;9.80;2.80;;;10.10;86.80;;;;;;4383356;32;20763;-62
2021/04/10 07:49:08;;;;;;;8.50;3.37;;;10.30;85.80;;;;;;4382482;32;20246;-62
2021/04/10 07:51:38;;;;;;;8.43;3.23;;;10.40;84.30;;;;;;4384208;32;20190;-63
2021/04/10 07:54:25;;;;;;;9.60;2.70;;;10.30;85.10;;;;;;4383417;32;20160;-61
2021/04/10 07:57:02;;;;;;;7.30;2.60;;;10.60;83.50;;;;;;4383066;32;20232;-63
2021/04/10 07:59:30;;;;;;;7.30;2.73;;;10.80;83.00;;;;;;4389782;32;20216;-62
2021/04/10 08:02:15;;;;;;;9.13;2.97;;;11.20;82.90;;;;;;4382342;32;20168;-61
2021/04/10 08:04:57;;;;;;;8.33;2.93;;;12.60;77.80;;;;;;4386458;32;20288;-60
2021/04/10 08:07:24;;;;;;;10.53;2.80;;;13.40;74.30;;;;;;4386986;32;22388;-62
2021/04/10 08:09:57;;;;;;;10.17;2.30;;;13.90;71.40;;;;;;4384582;32;20282;-61
2021/04/10 08:12:29;;;;;;;8.20;2.03;;;13.60;71.90;;;;;;4388540;32;20154;-63
2021/04/10 08:15:06;;;;;;;5.23;2.47;;;13.40;72.90;;;;;;4384524;32;20232;-62
2021/04/10 08:17:35;;;;;;;11.23;2.70;;;13.40;72.20;;;;;;4387042;32;20239;-63
2021/04/10 08:20:18;;;;;;;6.40;2.43;;;13.40;71.80;;;;;;4387930;32;20188;-63
2021/04/10 08:22:44;;;;;;;11.77;2.90;;;13.10;72.30;;;;;;4380104;32;20540;-61
2021/04/10 08:25:12;;;;;;;5.93;2.60;;;13.40;72.20;;;;;;4383358;32;21568;-63
2021/04/10 08:27:40;;;;;;;6.37;2.00;;;13.70;70.70;;;;;;4379438;32;20264;-61
2021/04/10 08:30:08;;;;;;;7.77;2.50;;;13.50;69.80;;;;;;4381975;32;20215;-61
2021/04/10 08:32:35;;;;;;;4.27;2.20;;;12.70;71.70;;;;;;4385429;32;20202;-63
2021/04/10 08:35:02;;;;;;;6.23;2.00;;;11.90;73.90;;;;;;4382987;32;20171;-62
2021/04/10 08:37:29;;;;;;;5.13;1.80;;;11.00;76.70;;;;;;4386740;32;20266;-65
2021/04/10 08:39:59;;;;;;;12.07;3.00;;;10.80;78.80;;;;;;4385353;32;20166;-65
2021/04/10 08:42:26;;;;;;;8.30;2.00;;;10.70;79.20;;;;;;4378976;32;20227;-64
2021/04/10 08:44:55;;;;;;;10.80;2.27;;;10.50;80.20;;;;;;4382253;32;20169;-61
2021/04/10 08:47:25;;;;;;;7.33;2.00;;;10.40;79.50;;;;;;4385148;32;20158;-61
2021/04/10 08:49:53;;;;;;;5.13;1.97;;;10.50;79.90;;;;;;4386010;32;20193;-59
2021/04/10 08:52:31;;;;;;;4.70;1.80;;;10.60;79.00;;;;;;4381356;32;20192;-63
2021/04/10 08:54:59;;;;;;;6.33;2.23;;;10.50;79.60;;;;;;4383438;32;20187;-61
2021/04/10 08:57:36;;;;;;;7.30;2.50;;;10.20;80.50;;;;;;4380579;32;20165;-63
2021/04/10 09:00:20;;;;;;;10.80;2.43;;;10.20;80.80;;;;;;4386458;32;20276;-64
2021/04/10 09:02:52;;;;;;;5.20;2.30;;;10.10;80.80;;;;;;4390423;32;20260;-64
2021/04/10 09:05:19;;;;;;;6.87;2.33;;;10.30;81.00;;;;;;4392137;32;20164;-64
2021/04/10 09:08:06;;;;;;;8.93;3.10;;;10.30;80.80;;;;;;4389256;32;20220;-63
2021/04/10 09:10:51;;;;;;;9.77;2.67;;;10.40;80.60;;;;;;4384672;32;20581;-61
2021/04/10 09:13:29;;;;;;;7.43;2.77;;;10.60;80.10;;;;;;4377408;32;20161;-62
2021/04/10 09:16:32;;;;;;;6.90;2.73;;;10.60;79.60;;;;;;4376965;32;20588;-61
2021/04/10 09:19:00;;;;;;;7.63;2.60;;;10.50;80.00;;;;;;4319574;33;20245;-63
2021/04/10 09:21:38;;;;;;;7.27;2.50;;;10.30;80.30;;;;;;4326511;33;21375;-62
2021/04/10 09:24:25;;;;;;;7.70;2.83;;;10.40;80.50;;;;;;4328810;33;20229;-62
2021/04/10 09:27:00;;;;;;;8.23;2.70;;;10.40;80.50;;;;;;4325516;33;20182;-61
2021/04/10 09:29:30;;;;;;;7.83;2.63;;;10.50;81.00;;;;;;4317613;33;20676;-61
2021/04/10 09:31:59;;;;;;;8.43;2.67;;;10.70;80.20;;;;;;4324868;33;20184;-61
2021/04/10 09:34:51;;;;;;;7.77;3.30;;;10.70;79.10;;;;;;4331196;33;20182;-61
2021/04/10 09:38:01;;;;;;;7.93;3.07;;;10.50;79.40;;;;;;4329885;33;20211;-64
2021/04/10 09:40:50;;;;;;;9.10;2.80;;;10.70;79.60;;;;;;4326273;33;20193;-63
2021/04/10 09:43:21;;;;;;;7.00;2.37;;;10.70;80.30;;;;;;4328520;33;20657;-64
2021/04/10 09:45:51;;;;;;;9.77;3.50;;;10.70;79.50;;;;;;4329968;33;20164;-60
2021/04/10 09:48:46;;;;;;;5.90;2.23;;;10.60;80.60;;;;;;4329203;33;20270;-63
2021/04/10 09:51:14;;;;;;;6.60;2.70;;;10.70;80.40;;;;;;4331255;33;20158;-63
2021/04/10 09:53:45;;;;;;;7.37;2.97;;;10.90;79.90;;;;;;4366462;32;20558;-63
2021/04/10 09:56:14;;;;;;;9.63;3.13;;;10.90;79.20;;;;;;4387993;32;20181;-61
2021/04/10 09:58:46;;;;;;;8.80;2.93;;;10.80;79.40;;;;;;4385549;32;20176;-62
2021/04/10 10:01:16;;;;;;;7.33;3.37;;;10.70;80.00;;;;;;4380744;32;20181;-63
2021/04/10 10:03:45;;;;;;;8.73;2.93;;;10.60;80.40;;;;;;4379932;32;20222;-63
2021/04/10 10:06:23;;;;;;;8.73;3.23;;;10.50;81.10;;;;;;4389682;32;20495;-62
2021/04/10 10:08:50;;;;;;;7.93;3.13;;;10.60;81.60;;;;;;4383114;32;20592;-63
2021/04/10 10:11:17;;;;;;;9.77;3.57;;;10.60;80.50;;;;;;4390716;32;20183;-60
2021/04/10 10:13:44;;;;;;;11.37;3.17;;;10.30;81.80;;;;;;4390903;32;20152;-60
2021/04/10 10:16:11;;;;;;;8.97;3.23;;;10.00;83.00;;;;;;4390940;32;20171;-62
2021/04/10 10:18:39;;;;;;;9.40;2.67;;;9.80;84.60;;;;;;4390230;32;20200;-62
2021/04/10 10:21:11;;;;;;;10.00;3.67;;;9.30;87.00;;;;;;4391490;32;20153;-60
2021/04/10 10:23:41;;;;;;;8.80;3.07;;;8.80;88.40;;;;;;4375811;32;20178;-62
2021/04/10 10:26:10;;;;;;;10.20;3.03;;;8.50;90.40;;;;;;4377277;32;20209;-62
2021/04/10 10:28:39;;;;;;;7.20;3.20;;;8.40;91.20;;;;;;4377434;32;20179;-63
2021/04/10 10:31:08;;;;;;;8.47;3.20;;;8.20;91.70;;;;;;4392204;32;20168;-61
2021/04/10 10:33:34;;;;;;;9.97;3.40;;;8.10;92.50;;;;;;4390632;32;20152;-61
2021/04/10 10:36:01;;;;;;;9.63;3.40;;;7.90;92.90;;;;;;4391490;32;20560;-61
2021/04/10 10:38:36;;;;;;;9.37;3.30;;;7.90;93.30;;;;;;4389913;32;20591;-62
2021/04/10 10:41:06;;;;;;;14.70;3.60;;;7.80;94.20;;;;;;4376497;32;20140;-60
2021/04/10 10:43:34;;;;;;;9.00;3.30;;;7.80;94.00;;;;;;4375984;32;20156;-62
2021/04/10 10:46:04;;;;;;;8.90;3.10;;;7.90;93.60;;;;;;4373618;32;20241;-61
2021/04/10 10:48:32;;;;;;;8.67;3.30;;;7.80;94.10;;;;;;4388011;32;20205;-61
2021/04/10 10:51:17;;;;;;;8.47;4.00;;;7.70;94.20;;;;;;4382505;32;20160;-61
2021/04/10 10:53:46;;;;;;;8.73;3.07;;;7.70;94.50;;;;;;4380911;32;20223;-63
2021/04/10 10:56:15;;;;;;;12.37;4.37;;;7.80;94.30;;;;;;4382674;32;20176;-62
2021/04/10 10:58:44;;;;;;;11.27;3.60;;;7.80;94.60;;;;;;4382416;32;20168;-63
2021/04/10 11:01:20;;;;;;;13.40;3.37;;;7.90;94.40;;;;;;4382322;32;20168;-61
2021/04/10 11:03:50;;;;;;;7.53;2.93;;;7.80;94.30;;;;;;4378743;32;20215;-64
2021/04/10 11:06:19;;;;;;;8.47;2.93;;;8.10;94.30;;;;;;4379503;32;20188;-61
2021/04/10 11:08:47;;;;;;;8.53;3.33;;;8.40;93.80;;;;;;4384263;32;20169;-62
2021/04/10 11:11:14;;;;;;;9.20;2.87;;;8.40;93.40;;;;;;4382613;32;20172;-64
2021/04/10 11:13:43;;;;;;;14.47;2.80;;;8.50;93.40;;;;;;4382719;32;20665;-63
2021/04/10 11:16:11;;;;;;;11.70;3.20;;;8.60;93.10;;;;;;4385064;32;20689;-62
2021/04/10 11:18:38;;;;;;;11.37;3.30;;;8.50;93.10;;;;;;4388174;32;20612;-61
2021/04/10 11:21:18;;;;;;;8.17;3.00;;;8.50;93.40;;;;;;4381230;32;20179;-61
2021/04/10 11:24:12;;;;;;;11.90;3.33;;;8.40;93.50;;;;;;4381088;32;20184;-63
2021/04/10 11:26:48;;;;;;;10.13;2.93;;;8.50;93.30;;;;;;4380598;32;20184;-61
2021/04/10 11:29:29;;;;;;;8.03;3.30;;;8.40;93.70;;;;;;4380996;32;20163;-63
2021/04/10 11:32:10;;;;;;;12.17;3.50;;;8.30;94.00;;;;;;4378021;32;20149;-63
2021/04/10 11:34:39;;;;;;;6.00;3.03;;;8.30;94.10;;;;;;4377436;32;20748;-63
2021/04/10 11:37:09;;;;;;;9.27;2.53;;;8.40;94.70;;;;;;4379422;32;20215;-63
2021/04/10 11:40:05;;;;;;;8.57;2.97;;;8.30;93.60;;;;;;4380353;32;20252;-61
2021/04/10 11:42:34;;;;;;;10.00;2.93;;;8.20;94.80;;;;;;4347172;32;20580;-60
2021/04/10 11:45:03;;;;;;;9.00;2.90;;;8.20;94.60;;;;;;4349601;33;20169;-61
2021/04/10 11:47:35;;;;;;;10.30;3.50;;;8.00;94.50;;;;;;4351342;32;20177;-62
2021/04/10 11:50:10;;;;;;;9.83;3.10;;;7.80;94.70;;;;;;4349333;33;20165;-60
2021/04/10 11:52:37;;;;;;;7.87;3.03;;;7.70;94.60;;;;;;4352518;33;20668;-64
2021/04/10 11:55:07;;;;;;;8.17;3.30;;;7.70;95.60;;;;;;4352001;33;20601;-62
2021/04/10 11:57:37;;;;;;;8.90;3.23;;;7.70;95.70;;;;;;4347930;33;20157;-65
2021/04/10 12:00:13;;;;;;;14.20;3.23;;;7.80;96.20;;;;;;4351148;32;20624;-62
2021/04/10 12:02:41;;;;;;;9.27;3.37;;;8.00;95.90;;;;;;4352083;33;20191;-62
2021/04/10 12:05:21;;;;;;;8.90;3.73;;;8.00;96.20;;;;;;4348032;33;20311;-61
2021/04/10 12:08:11;;;;;;;8.90;2.83;;;7.90;95.60;;;;;;4351769;33;20199;-63
2021/04/10 12:10:43;;;;;;;11.27;3.60;;;7.90;96.20;;;;;;4349243;32;20626;-62
2021/04/10 12:13:11;;;;;;;14.87;3.70;;;7.90;96.40;;;;;;4350671;33;20594;-63
2021/04/10 12:15:39;;;;;;;11.70;3.73;;;8.10;96.50;;;;;;4346679;32;20243;-62
2021/04/10 12:18:08;;;;;;;10.70;4.10;;;8.20;96.10;;;;;;4363149;32;20454;-62
2021/04/10 12:20:35;;;;;;;9.87;3.23;;;8.10;96.10;;;;;;4381276;32;20172;-62
2021/04/10 12:23:03;;;;;;;9.03;4.00;;;7.90;95.70;;;;;;4383528;32;20224;-63
2021/04/10 12:25:30;;;;;;;8.30;3.67;;;7.90;96.60;;;;;;4381403;32;20275;-63
2021/04/10 12:27:57;;;;;;;13.90;4.10;;;7.80;96.80;;;;;;4383654;32;20592;-62
2021/04/10 12:30:25;;;;;;;10.93;3.67;;;7.80;97.30;;;;;;4379798;32;20202;-62
2021/04/10 12:32:51;;;;;;;12.07;4.37;;;7.90;97.20;;;;;;4381114;32;20148;-62
2021/04/10 12:35:18;;;;;;;9.07;3.67;;;8.00;97.20;;;;;;4383433;32;20275;-63
2021/04/10 12:37:44;;;;;;;16.67;3.93;;;8.00;97.10;;;;;;4387272;32;20190;-65
2021/04/10 12:40:12;;;;;;;15.10;4.43;;;8.30;97.20;;;;;;4382808;32;20176;-64
2021/04/10 12:42:39;;;;;;;10.00;4.47;;;8.30;96.80;;;;;;4383088;32;20182;-63
2021/04/10 12:45:08;;;;;;;13.63;4.27;;;8.40;96.60;;;;;;4385737;32;20614;-64
2021/04/10 12:47:38;;;;;;;12.17;4.40;;;8.40;96.40;;;;;;4378729;32;20164;-62
2021/04/10 12:50:06;;;;;;;11.07;4.50;;;8.20;96.40;;;;;;4378873;32;20223;-62
2021/04/10 12:52:32;;;;;;;12.07;5.03;;;8.00;96.90;;;;;;4381337;32;20311;-64
2021/04/10 12:54:59;;;;;;;15.23;4.60;;;8.10;97.10;;;;;;4381220;32;20229;-61
2021/04/10 12:57:27;;;;;;;9.50;4.73;;;7.90;96.40;;;;;;4379882;32;20152;-61
2021/04/10 12:59:53;;;;;;;10.87;4.90;;;7.70;97.00;;;;;;4379232;32;20152;-62
2021/04/10 13:02:21;;;;;;;14.57;5.10;;;7.60;97.50;;;;;;4378320;32;20212;-63